createdAt,value
2024-05-09T00:00:40.266Z,44.56
2024-05-09T00:03:10.060Z,45.54
2024-05-09T00:05:39.013Z,45.17
2024-05-09T00:08:06.722Z,45.05
2024-05-09T00:10:37.440Z,45.10
2024-05-09T00:13:09.597Z,45.24
2024-05-09T00:15:37.238Z,45.33
2024-05-09T00:18:05.439Z,45.06
2024-05-09T00:20:38.389Z,45.52
2024-05-09T00:23:12.185Z,45.59
2024-05-09T00:25:40.187Z,45.90
2024-05-09T00:28:07.192Z,46.21
2024-05-09T00:30:36.527Z,46.84
2024-05-09T00:33:06.420Z,46.92
2024-05-09T00:35:34.768Z,47.05
2024-05-09T00:38:02.308Z,48.05
2024-05-09T00:40:39.118Z,48.05
2024-05-09T00:43:08.564Z,48.24
2024-05-09T00:45:36.883Z,49.20
2024-05-09T00:48:09.524Z,49.19
2024-05-09T00:50:40.509Z,49.30
2024-05-09T00:53:08.420Z,49.82
2024-05-09T00:55:35.853Z,49.32
2024-05-09T00:58:03.359Z,50.38
2024-05-09T01:00:37.868Z,50.40
2024-05-09T01:03:07.791Z,50.31
2024-05-09T01:05:35.788Z,50.28
2024-05-09T01:08:03.442Z,49.87
2024-05-09T01:10:34.651Z,50.04
2024-05-09T01:13:06.466Z,49.29
2024-05-09T01:15:34.228Z,49.04
2024-05-09T01:18:01.840Z,49.26
2024-05-09T01:20:39.195Z,49.45
2024-05-09T01:23:10.070Z,49.11
2024-05-09T01:25:37.583Z,50.04
2024-05-09T01:28:04.926Z,50.43
2024-05-09T01:30:35.377Z,50.31
2024-05-09T01:33:06.260Z,50.68
2024-05-09T01:35:34.931Z,50.76
2024-05-09T01:38:02.239Z,51.26
2024-05-09T01:40:36.830Z,51.78
2024-05-09T01:43:06.919Z,51.93
2024-05-09T01:45:34.183Z,52.27
2024-05-09T01:48:01.757Z,52.48
2024-05-09T01:50:37.703Z,52.99
2024-05-09T01:53:09.075Z,53.28
2024-05-09T01:55:36.177Z,52.69
2024-05-09T01:58:03.374Z,52.98
2024-05-09T02:00:38.722Z,52.86
2024-05-09T02:03:15.642Z,53.09
2024-05-09T02:05:45.575Z,52.75
2024-05-09T02:08:15.481Z,52.95
2024-05-09T02:10:44.474Z,52.81
2024-05-09T02:13:11.672Z,52.25
2024-05-09T02:15:38.787Z,52.23
2024-05-09T02:18:06.290Z,52.35
2024-05-09T02:20:36.495Z,51.64
2024-05-09T02:23:06.583Z,51.48
2024-05-09T02:25:34.470Z,51.27
2024-05-09T02:28:01.718Z,51.29
2024-05-09T02:30:38.154Z,51.48
2024-05-09T02:33:09.397Z,50.89
2024-05-09T02:35:37.521Z,50.25
2024-05-09T02:38:04.809Z,50.82
2024-05-09T02:40:37.101Z,50.12
2024-05-09T02:43:07.121Z,50.58
2024-05-09T02:45:34.511Z,50.54
2024-05-09T02:48:02.232Z,49.68
2024-05-09T02:50:36.947Z,49.31
2024-05-09T02:53:07.419Z,48.56
2024-05-09T02:55:34.633Z,48.69
2024-05-09T02:58:01.669Z,49.35
2024-05-09T03:00:36.925Z,49.39
2024-05-09T03:03:12.211Z,49.52
2024-05-09T03:05:42.580Z,50.03
2024-05-09T03:08:10.012Z,50.05
2024-05-09T03:10:38.779Z,50.15
2024-05-09T03:13:12.655Z,50.92
2024-05-09T03:15:40.898Z,51.40
2024-05-09T03:18:08.910Z,51.69
2024-05-09T03:20:37.111Z,52.00
2024-05-09T03:23:05.774Z,51.59
2024-05-09T03:25:33.622Z,51.88
2024-05-09T03:28:01.077Z,50.99
2024-05-09T03:30:39.100Z,50.84
2024-05-09T03:33:14.151Z,50.88
2024-05-09T03:35:42.304Z,50.98
2024-05-09T03:38:09.672Z,50.61
2024-05-09T03:40:36.765Z,50.28
2024-05-09T03:43:03.848Z,50.44
2024-05-09T03:45:30.834Z,50.80
2024-05-09T03:47:58.037Z,50.20
2024-05-09T03:50:30.304Z,49.63
2024-05-09T03:53:02.084Z,49.95
2024-05-09T03:55:29.251Z,49.61
2024-05-09T03:57:56.233Z,48.93
2024-05-09T04:00:31.253Z,48.84
2024-05-09T04:03:06.289Z,49.20
2024-05-09T04:05:35.236Z,48.61
2024-05-09T04:08:02.448Z,49.44
2024-05-09T04:10:33.720Z,49.34
2024-05-09T04:13:02.777Z,49.46
2024-05-09T04:15:30.027Z,49.11
2024-05-09T04:17:57.258Z,49.55
2024-05-09T04:20:33.817Z,49.53
2024-05-09T04:23:06.683Z,49.34
2024-05-09T04:25:34.033Z,49.97
2024-05-09T04:28:01.191Z,49.27
2024-05-09T04:30:36.711Z,49.14
2024-05-09T04:33:08.400Z,49.80
2024-05-09T04:35:37.432Z,49.27
2024-05-09T04:38:05.332Z,49.86
2024-05-09T04:40:35.685Z,49.95
2024-05-09T04:43:05.385Z,49.78
2024-05-09T04:45:32.562Z,49.43
2024-05-09T04:47:59.970Z,49.56
2024-05-09T04:50:35.693Z,49.62
2024-05-09T04:53:06.905Z,49.77
2024-05-09T04:55:34.534Z,49.71
2024-05-09T04:58:01.937Z,49.17
2024-05-09T05:00:35.844Z,49.53
2024-05-09T05:03:07.452Z,49.51
2024-05-09T05:05:38.265Z,49.97
2024-05-09T05:08:06.214Z,50.05
2024-05-09T05:10:36.341Z,50.22
2024-05-09T05:13:18.315Z,49.72
2024-05-09T05:15:50.072Z,49.35
2024-05-09T05:18:17.557Z,49.48
2024-05-09T05:20:45.115Z,49.53
2024-05-09T05:23:16.492Z,49.66
2024-05-09T05:25:43.853Z,49.52
2024-05-09T05:28:11.068Z,50.02
2024-05-09T05:30:38.326Z,49.98
2024-05-09T05:33:06.342Z,49.04
2024-05-09T05:35:34.400Z,49.11
2024-05-09T05:38:01.773Z,49.07
2024-05-09T05:40:36.288Z,49.48
2024-05-09T05:43:05.923Z,48.96
2024-05-09T05:45:33.023Z,49.54
2024-05-09T05:48:00.523Z,49.35
2024-05-09T05:50:35.337Z,49.09
2024-05-09T05:53:05.618Z,48.49
2024-05-09T05:55:32.718Z,48.76
2024-05-09T05:58:00.808Z,48.20
2024-05-09T06:00:34.762Z,47.93
2024-05-09T06:03:05.774Z,48.26
2024-05-09T06:05:33.269Z,47.87
2024-05-09T06:08:00.795Z,47.77
2024-05-09T06:10:37.213Z,47.38
2024-05-09T06:13:07.351Z,48.17
2024-05-09T06:15:34.528Z,48.03
2024-05-09T06:18:02.110Z,47.42
2024-05-09T06:20:35.781Z,47.36
2024-05-09T06:23:06.361Z,47.42
2024-05-09T06:25:34.186Z,46.39
2024-05-09T06:28:01.304Z,45.93
2024-05-09T06:30:36.997Z,45.93
2024-05-09T06:33:08.684Z,45.66
2024-05-09T06:35:38.012Z,45.98
2024-05-09T06:38:05.371Z,45.58
2024-05-09T06:40:38.276Z,45.16
2024-05-09T06:43:14.047Z,45.66
2024-05-09T06:45:41.598Z,45.73
2024-05-09T06:48:09.439Z,45.54
2024-05-09T06:50:38.539Z,45.75
2024-05-09T06:53:07.491Z,45.67
2024-05-09T06:55:34.776Z,45.42
2024-05-09T06:58:01.933Z,45.60
2024-05-09T07:00:35.790Z,45.73
2024-05-09T07:03:15.658Z,45.91
2024-05-09T07:05:46.051Z,45.63
2024-05-09T07:08:14.048Z,45.77
2024-05-09T07:10:41.239Z,45.17
2024-05-09T07:13:11.968Z,45.21
2024-05-09T07:15:39.620Z,44.95
2024-05-09T07:18:10.273Z,44.50
2024-05-09T07:20:37.754Z,43.73
2024-05-09T07:23:05.196Z,44.16
2024-05-09T07:25:32.414Z,43.58
2024-05-09T07:27:59.509Z,43.42
2024-05-09T07:30:33.124Z,43.15
2024-05-09T07:33:02.620Z,42.94
2024-05-09T07:35:30.656Z,42.03
2024-05-09T07:37:58.099Z,41.05
2024-05-09T07:40:32.953Z,41.36
2024-05-09T07:43:11.996Z,41.31
2024-05-09T07:45:48.754Z,39.55
2024-05-09T07:53:38.708Z,39.76
2024-05-09T07:56:09.414Z,39.06
2024-05-09T07:58:37.251Z,38.97
2024-05-09T08:01:04.717Z,38.65
2024-05-09T08:03:31.964Z,38.99
2024-05-09T08:05:59.161Z,38.77
2024-05-09T08:08:26.195Z,38.38
2024-05-09T08:10:53.286Z,38.61
2024-05-09T08:13:20.757Z,38.66
2024-05-09T08:15:47.942Z,38.12
2024-05-09T08:18:15.260Z,38.94
2024-05-09T08:20:42.655Z,38.61
2024-05-09T08:23:10.999Z,38.79
2024-05-09T08:25:38.925Z,38.60
2024-05-09T08:28:06.334Z,38.30
2024-05-09T08:30:37.099Z,38.46
2024-05-09T08:33:06.528Z,38.69
2024-05-09T08:35:34.776Z,39.03
2024-05-09T08:38:06.323Z,38.68
2024-05-09T08:40:36.229Z,38.39
2024-05-09T08:43:10.466Z,38.44
2024-05-09T08:45:39.641Z,38.37
2024-05-09T08:48:08.734Z,37.85
2024-05-09T08:50:38.955Z,37.14
2024-05-09T08:53:07.776Z,37.47
2024-05-09T08:55:38.124Z,36.45
2024-05-09T08:58:07.559Z,35.61
2024-05-09T09:00:37.288Z,35.05
2024-05-09T09:03:06.277Z,34.43
2024-05-09T09:05:34.060Z,34.56
2024-05-09T09:08:01.385Z,35.05
2024-05-09T09:10:32.300Z,35.08
2024-05-09T09:13:09.898Z,34.39
2024-05-09T09:15:47.997Z,34.90
2024-05-09T09:18:16.032Z,34.67
2024-05-09T09:20:43.703Z,34.14
2024-05-09T09:23:10.902Z,34.76
2024-05-09T09:25:41.159Z,35.29
2024-05-09T09:28:08.983Z,35.49
2024-05-09T09:30:42.953Z,35.65
2024-05-09T09:33:10.756Z,35.30
2024-05-09T09:35:39.810Z,36.03
2024-05-09T09:38:07.517Z,35.59
2024-05-09T09:40:40.395Z,35.02
2024-05-09T09:43:14.291Z,35.08
2024-05-09T09:45:42.049Z,34.47
2024-05-09T09:48:09.280Z,33.98
2024-05-09T09:50:36.382Z,33.61
2024-05-09T09:53:04.362Z,33.90
2024-05-09T09:55:32.733Z,33.42
2024-05-09T09:57:59.988Z,33.51
2024-05-09T10:00:32.545Z,32.93
2024-05-09T10:03:01.574Z,32.70
2024-05-09T10:05:29.100Z,33.24
2024-05-09T10:07:56.341Z,33.80
2024-05-09T10:10:31.400Z,33.71
2024-05-09T10:13:07.111Z,34.19
2024-05-09T10:15:48.349Z,34.38
2024-05-09T10:18:15.848Z,34.39
2024-05-09T10:20:44.121Z,34.55
2024-05-09T10:23:29.627Z,34.46
2024-05-09T10:26:06.311Z,34.14
2024-05-09T10:28:35.340Z,34.71
2024-05-09T10:31:03.266Z,35.63
2024-05-09T10:33:40.498Z,35.20
2024-05-09T10:36:14.526Z,35.53
2024-05-09T10:38:43.354Z,35.65
2024-05-09T10:41:11.201Z,34.92
2024-05-09T10:43:41.549Z,34.03
2024-05-09T10:46:09.007Z,33.23
2024-05-09T10:48:36.746Z,32.78
2024-05-09T10:51:04.417Z,31.93
2024-05-09T10:53:31.938Z,30.71
2024-05-09T10:55:59.616Z,29.38
2024-05-09T10:58:26.914Z,28.52
2024-05-09T11:00:57.970Z,28.08
2024-05-09T11:03:25.325Z,27.23
2024-05-09T11:05:53.136Z,26.95
2024-05-09T11:08:22.281Z,27.10
2024-05-09T11:10:52.702Z,26.22
2024-05-09T11:13:32.558Z,24.84
2024-05-09T11:16:00.323Z,24.27
2024-05-09T11:18:35.144Z,23.63
2024-05-09T11:21:14.445Z,22.99
2024-05-09T11:23:41.783Z,23.29
2024-05-09T11:26:10.178Z,23.17
2024-05-09T11:28:37.357Z,22.27
2024-05-09T11:31:08.894Z,21.88
2024-05-09T11:33:40.309Z,20.98
2024-05-09T11:36:08.183Z,22.42
2024-05-09T11:38:35.577Z,21.60
2024-05-09T11:41:03.486Z,21.35
2024-05-09T11:43:31.965Z,19.34
2024-05-09T11:45:58.910Z,19.10
2024-05-09T11:48:26.650Z,19.90
2024-05-09T11:50:55.082Z,19.50
2024-05-09T11:53:22.253Z,19.07
2024-05-09T11:55:49.266Z,19.45
2024-05-09T11:58:18.345Z,17.94
2024-05-09T12:00:46.749Z,18.73
2024-05-09T12:03:14.198Z,18.08
2024-05-09T12:05:41.515Z,18.15
2024-05-09T12:08:08.695Z,16.42
2024-05-09T12:10:36.871Z,15.53
2024-05-09T12:13:06.095Z,15.92
2024-05-09T12:15:37.457Z,16.54
2024-05-09T12:18:06.180Z,14.73
2024-05-09T12:20:37.707Z,13.80
2024-05-09T12:23:07.529Z,13.92
2024-05-09T12:25:36.296Z,13.86
2024-05-09T12:28:03.534Z,13.29
2024-05-09T12:30:36.705Z,12.86
2024-05-09T12:33:08.731Z,13.11
2024-05-09T12:35:36.263Z,13.79
2024-05-09T12:38:03.407Z,12.88
2024-05-09T12:40:36.291Z,11.67
2024-05-09T12:43:07.448Z,11.25
2024-05-09T12:45:35.404Z,10.91
2024-05-09T12:48:02.620Z,10.83
2024-05-09T12:50:33.026Z,9.90
2024-05-09T12:53:02.566Z,8.40
2024-05-09T12:55:36.464Z,7.95
2024-05-09T12:58:08.961Z,9.27
2024-05-09T13:00:36.357Z,10.73
2024-05-09T13:03:03.571Z,12.09
2024-05-09T13:05:30.972Z,15.26
2024-05-09T13:07:58.234Z,15.09
2024-05-09T13:10:31.446Z,15.17
2024-05-09T13:13:01.212Z,17.00
2024-05-09T13:15:30.304Z,17.53
2024-05-09T13:18:00.559Z,18.95
2024-05-09T13:20:33.611Z,19.85
2024-05-09T13:23:03.526Z,19.64
2024-05-09T13:25:30.754Z,20.39
2024-05-09T13:27:58.280Z,20.75
2024-05-09T13:30:34.930Z,20.97
2024-05-09T13:33:07.314Z,21.14
2024-05-09T13:35:35.584Z,21.87
2024-05-09T13:38:03.460Z,21.85
2024-05-09T13:40:34.438Z,22.54
2024-05-09T13:43:04.841Z,22.54
2024-05-09T13:45:32.515Z,23.24
2024-05-09T13:47:59.984Z,23.15
2024-05-09T13:50:33.571Z,22.71
2024-05-09T13:53:06.361Z,22.06
2024-05-09T13:55:35.463Z,22.62
2024-05-09T13:58:02.862Z,22.22
2024-05-09T14:03:00.068Z,22.70
2024-05-09T14:05:27.231Z,23.46
2024-05-09T14:07:54.320Z,23.64
2024-05-09T14:10:28.463Z,24.01
2024-05-09T14:12:58.013Z,23.84
2024-05-09T14:15:25.269Z,23.52
2024-05-09T14:17:52.395Z,23.42
2024-05-09T14:20:29.709Z,22.91
2024-05-09T14:22:58.881Z,23.53
2024-05-09T14:25:28.650Z,24.36
2024-05-09T14:27:57.525Z,24.55
2024-05-09T14:30:31.201Z,24.22
2024-05-09T14:33:04.346Z,24.03
2024-05-09T14:35:31.678Z,23.46
2024-05-09T14:37:59.118Z,23.66
2024-05-09T14:40:36.650Z,23.76
2024-05-09T14:43:08.916Z,23.77
2024-05-09T14:45:36.287Z,24.21
2024-05-09T14:48:04.105Z,23.86
2024-05-09T14:50:36.709Z,24.03
2024-05-09T14:53:07.441Z,23.46
2024-05-09T14:55:36.914Z,23.87
2024-05-09T14:58:06.876Z,24.10
2024-05-09T15:00:38.349Z,25.83
2024-05-09T15:03:07.157Z,26.27
2024-05-09T15:05:34.489Z,26.77
2024-05-09T15:08:01.586Z,27.32
2024-05-09T15:10:34.700Z,27.06
2024-05-09T15:13:04.570Z,28.83
2024-05-09T15:15:32.082Z,28.71
2024-05-09T15:17:59.625Z,29.03
2024-05-09T15:20:33.510Z,29.58
2024-05-09T15:23:03.550Z,30.88
2024-05-09T15:25:31.012Z,30.67
2024-05-09T15:27:58.235Z,30.95
2024-05-09T15:32:55.385Z,31.15
2024-05-09T15:35:22.474Z,31.97
2024-05-09T15:37:49.556Z,31.86
2024-05-09T15:40:26.147Z,31.98
2024-05-09T15:43:02.563Z,32.01
2024-05-09T15:45:29.841Z,31.90
2024-05-09T15:47:57.792Z,31.58
2024-05-09T15:50:35.826Z,32.14
2024-05-09T15:53:07.705Z,32.79
2024-05-09T15:55:35.709Z,31.96
2024-05-09T15:58:03.605Z,31.82
2024-05-09T16:00:38.406Z,31.64
2024-05-09T16:03:12.733Z,32.58
2024-05-09T16:05:41.660Z,32.36
2024-05-09T16:08:09.027Z,32.51
2024-05-09T16:10:38.136Z,32.12
2024-05-09T16:13:06.288Z,32.41
2024-05-09T16:15:33.407Z,32.30
2024-05-09T16:18:02.325Z,32.18
2024-05-09T16:20:37.908Z,32.06
2024-05-09T16:23:08.762Z,32.20
2024-05-09T16:25:36.463Z,32.61
2024-05-09T16:28:07.546Z,32.54
2024-05-09T16:30:37.821Z,32.47
2024-05-09T16:33:05.840Z,32.26
2024-05-09T16:35:34.843Z,32.61
2024-05-09T16:38:02.162Z,32.45
2024-05-09T16:40:36.624Z,32.52
2024-05-09T16:43:07.539Z,33.14
2024-05-09T16:45:35.259Z,32.92
2024-05-09T16:48:02.588Z,32.91
2024-05-09T16:50:33.795Z,33.10
2024-05-09T16:53:06.268Z,33.39
2024-05-09T16:55:34.389Z,33.57
2024-05-09T16:58:01.886Z,33.55
2024-05-09T17:00:39.332Z,33.71
2024-05-09T17:03:11.222Z,34.17
2024-05-09T17:05:39.114Z,33.88
2024-05-09T17:08:06.976Z,33.57
2024-05-09T17:10:35.350Z,33.07
2024-05-09T17:13:04.515Z,33.56
2024-05-09T17:15:33.314Z,33.27
2024-05-09T17:18:00.885Z,32.93
2024-05-09T17:20:33.224Z,32.89
2024-05-09T17:23:03.190Z,32.30
2024-05-09T17:25:30.239Z,32.33
2024-05-09T17:27:57.506Z,33.05
2024-05-09T17:30:31.955Z,32.77
2024-05-09T17:33:04.000Z,33.28
2024-05-09T17:35:31.980Z,33.73
2024-05-09T17:37:59.905Z,34.13
2024-05-09T17:40:33.349Z,33.34
2024-05-09T17:43:03.901Z,33.40
2024-05-09T17:45:32.060Z,33.20
2024-05-09T17:47:59.621Z,33.54
2024-05-09T17:50:35.074Z,33.29
2024-05-09T17:53:06.084Z,33.17
2024-05-09T17:55:33.866Z,33.54
2024-05-09T17:58:01.653Z,33.70
2024-05-09T18:00:37.018Z,34.02
2024-05-09T18:03:07.836Z,33.97
2024-05-09T18:05:36.671Z,34.49
2024-05-09T18:08:05.265Z,34.43
2024-05-09T18:10:36.848Z,35.06
2024-05-09T18:13:07.395Z,35.06
2024-05-09T18:15:35.054Z,35.19
2024-05-09T18:18:02.685Z,35.77
2024-05-09T18:20:39.275Z,35.60
2024-05-09T18:23:11.042Z,35.54
2024-05-09T18:25:38.181Z,35.15
2024-05-09T18:28:06.010Z,34.47
2024-05-09T18:30:35.926Z,34.55
2024-05-09T18:33:06.296Z,34.39
2024-05-09T18:35:35.019Z,34.50
2024-05-09T18:38:02.117Z,34.60
2024-05-09T18:40:34.365Z,34.67
2024-05-09T18:43:05.195Z,35.06
2024-05-09T18:45:33.349Z,35.29
2024-05-09T18:48:00.562Z,35.55
2024-05-09T18:50:35.079Z,35.55
2024-05-09T18:53:13.038Z,35.72
2024-05-09T18:55:44.385Z,35.72
2024-05-09T18:58:11.805Z,36.20
2024-05-09T19:00:41.560Z,36.01
2024-05-09T19:03:13.414Z,35.92
2024-05-09T19:05:46.018Z,36.62
2024-05-09T19:08:15.442Z,36.88
2024-05-09T19:10:42.635Z,36.43
2024-05-09T19:13:12.711Z,36.44
2024-05-09T19:15:41.850Z,36.28
2024-05-09T19:18:10.074Z,36.42
2024-05-09T19:20:37.973Z,36.31
2024-05-09T19:23:06.332Z,36.69
2024-05-09T19:25:33.945Z,36.60
2024-05-09T19:28:01.332Z,36.85
2024-05-09T19:30:37.955Z,36.89
2024-05-09T19:33:08.767Z,36.83
2024-05-09T19:35:36.314Z,36.88
2024-05-09T19:38:03.313Z,36.78
2024-05-09T19:40:32.816Z,36.77
2024-05-09T19:43:02.850Z,36.76
2024-05-09T19:45:30.484Z,36.61
2024-05-09T19:47:58.608Z,36.70
2024-05-09T19:50:35.696Z,36.83
2024-05-09T19:53:08.597Z,36.71
2024-05-09T19:55:35.738Z,36.68
2024-05-09T19:58:05.321Z,36.89
2024-05-09T20:00:39.803Z,37.02
2024-05-09T20:03:09.747Z,37.04
2024-05-09T20:05:37.872Z,37.04
2024-05-09T20:08:06.133Z,37.12
2024-05-09T20:10:35.510Z,36.94
2024-05-09T20:13:04.831Z,37.01
2024-05-09T20:15:34.369Z,37.23
2024-05-09T20:18:01.776Z,37.27
2024-05-09T20:20:37.019Z,37.27
2024-05-09T20:23:08.066Z,36.94
2024-05-09T20:25:35.180Z,37.31
2024-05-09T20:28:02.491Z,37.61
2024-05-09T20:30:32.846Z,37.65
2024-05-09T20:33:05.747Z,37.94
2024-05-09T20:35:34.237Z,38.11
2024-05-09T20:38:02.680Z,38.13
2024-05-09T20:40:34.753Z,38.32
2024-05-09T20:43:05.575Z,38.29
2024-05-09T20:45:33.254Z,39.32
2024-05-09T20:48:01.073Z,39.48
2024-05-09T20:50:36.751Z,39.66
2024-05-09T20:53:14.879Z,39.61
2024-05-09T20:55:43.508Z,39.83
2024-05-09T20:58:10.893Z,39.71
2024-05-09T21:00:41.994Z,40.02
2024-05-09T21:03:12.939Z,40.06
2024-05-09T21:05:43.159Z,39.81
2024-05-09T21:08:10.346Z,40.02
2024-05-09T21:10:37.983Z,40.37
2024-05-09T21:13:06.473Z,40.43
2024-05-09T21:15:34.588Z,40.41
2024-05-09T21:18:01.916Z,40.12
2024-05-09T21:20:32.903Z,40.63
2024-05-09T21:23:01.887Z,40.59
2024-05-09T21:25:29.544Z,40.37
2024-05-09T21:27:56.649Z,39.87
2024-05-09T21:30:32.626Z,39.92
2024-05-09T21:33:15.021Z,40.02
2024-05-09T21:35:43.673Z,40.00
2024-05-09T21:38:11.281Z,40.16
2024-05-09T21:40:39.088Z,40.21
2024-05-09T21:43:09.616Z,40.28
2024-05-09T21:45:37.077Z,40.23
2024-05-09T21:48:04.857Z,40.23
2024-05-09T21:50:39.185Z,40.32
2024-05-09T21:53:08.572Z,40.71
2024-05-09T21:55:35.798Z,41.08
2024-05-09T21:58:03.398Z,41.17
2024-05-09T22:00:36.908Z,41.54
2024-05-09T22:03:07.082Z,41.94
2024-05-09T22:05:35.198Z,42.28
2024-05-09T22:08:02.439Z,42.35
2024-05-09T22:10:34.193Z,42.72
2024-05-09T22:13:04.311Z,42.91
2024-05-09T22:15:36.152Z,43.23
2024-05-09T22:18:04.455Z,43.46
2024-05-09T22:20:37.065Z,43.55
2024-05-09T22:23:06.335Z,43.46
2024-05-09T22:25:33.711Z,43.57
2024-05-09T22:28:01.887Z,43.54
2024-05-09T22:30:36.807Z,43.52
2024-05-09T22:33:11.326Z,43.59
2024-05-09T22:35:40.102Z,43.94
2024-05-09T22:38:07.317Z,44.21
2024-05-09T22:40:44.943Z,44.48
2024-05-09T22:43:23.875Z,44.43
2024-05-09T22:45:53.200Z,44.24
2024-05-09T22:48:20.710Z,44.59
2024-05-09T22:50:47.899Z,44.46
2024-05-09T22:53:15.086Z,44.79
2024-05-09T22:55:42.688Z,44.50
2024-05-09T22:58:09.804Z,44.77
2024-05-09T23:00:37.203Z,45.13
2024-05-09T23:03:04.441Z,45.05
2024-05-09T23:05:32.837Z,45.35
2024-05-09T23:08:01.392Z,45.72
2024-05-09T23:10:35.521Z,45.39
2024-05-09T23:13:05.483Z,45.74
2024-05-09T23:15:32.730Z,45.88
2024-05-09T23:18:00.072Z,46.01
2024-05-09T23:20:36.027Z,45.94
2024-05-09T23:23:06.868Z,46.02
2024-05-09T23:25:34.176Z,46.28
2024-05-09T23:28:01.408Z,46.18
2024-05-09T23:30:36.047Z,46.45
2024-05-09T23:33:06.719Z,46.31
2024-05-09T23:35:33.969Z,46.31
2024-05-09T23:38:00.957Z,46.23
2024-05-09T23:40:37.553Z,46.25
2024-05-09T23:43:08.618Z,46.64
2024-05-09T23:45:36.106Z,47.29
2024-05-09T23:48:03.729Z,47.93
2024-05-09T23:50:35.415Z,48.37
2024-05-09T23:53:05.733Z,48.23
2024-05-09T23:55:33.229Z,48.03
2024-05-09T23:58:00.810Z,48.44
